createdAt,value
2023-01-31T00:01:29.121Z,100973.59
2023-01-31T00:03:58.141Z,100972.72
2023-01-31T00:06:30.523Z,100973.59
2023-01-31T00:08:59.721Z,100967.47
2023-01-31T00:11:30.008Z,100977.97
2023-01-31T00:13:59.363Z,100976.19
2023-01-31T00:16:27.566Z,100971.78
2023-01-31T00:18:55.640Z,100971.72
2023-01-31T00:21:25.336Z,100969.88
2023-01-31T00:23:55.325Z,100972.50
2023-01-31T00:26:24.783Z,100980.41
2023-01-31T00:28:56.199Z,100976.88
2023-01-31T00:31:25.297Z,100976.88
2023-01-31T00:33:54.457Z,100982.06
2023-01-31T00:36:24.050Z,100982.00
2023-01-31T00:38:54.585Z,100988.97
2023-01-31T00:41:24.163Z,100981.16
2023-01-31T00:43:52.087Z,100998.69
2023-01-31T00:46:20.632Z,100989.03
2023-01-31T00:48:48.459Z,100996.97
2023-01-31T00:51:16.080Z,101001.31
2023-01-31T00:53:43.978Z,101004.88
2023-01-31T00:56:14.832Z,101008.34
2023-01-31T00:58:42.937Z,100999.63
2023-01-31T01:01:13.817Z,100999.59
2023-01-31T01:03:42.591Z,101017.09
2023-01-31T01:06:11.045Z,101008.38
2023-01-31T01:08:40.856Z,101014.47
2023-01-31T01:11:11.449Z,101009.22
2023-01-31T01:13:41.709Z,101014.47
2023-01-31T01:16:11.644Z,101028.50
2023-01-31T01:18:39.846Z,101018.88
2023-01-31T01:21:09.678Z,101020.69
2023-01-31T01:23:37.672Z,101026.81
2023-01-31T01:26:05.631Z,101020.69
2023-01-31T01:28:35.367Z,101034.66
2023-01-31T01:31:07.579Z,101025.00
2023-01-31T01:33:35.259Z,101045.16
2023-01-31T01:36:03.454Z,101050.41
2023-01-31T01:38:31.405Z,101052.97
2023-01-31T01:40:58.919Z,101050.28
2023-01-31T01:43:41.366Z,101052.03
2023-01-31T01:46:14.740Z,101066.78
2023-01-31T01:48:46.031Z,101064.03
2023-01-31T01:51:15.114Z,101069.09
2023-01-31T01:53:45.442Z,101057.63
2023-01-31T01:56:18.718Z,101060.97
2023-01-31T01:58:50.919Z,101063.44
2023-01-31T02:01:20.461Z,101066.84
2023-01-31T02:03:49.664Z,101066.66
2023-01-31T02:06:17.410Z,101073.59
2023-01-31T02:08:46.314Z,101079.53
2023-01-31T02:11:21.179Z,101082.03
2023-01-31T02:13:50.637Z,101082.91
2023-01-31T02:16:20.140Z,101082.00
2023-01-31T02:18:49.278Z,101087.19
2023-01-31T02:21:41.244Z,101091.56
2023-01-31T02:24:48.051Z,101098.56
2023-01-31T02:27:39.820Z,101100.34
2023-01-31T02:30:34.167Z,101095.94
2023-01-31T02:33:11.157Z,101102.97
2023-01-31T02:35:50.970Z,101090.75
2023-01-31T02:38:32.732Z,101088.06
2023-01-31T02:41:10.625Z,101082.91
2023-01-31T02:44:12.150Z,101086.22
2023-01-31T02:46:47.886Z,101090.56
2023-01-31T02:49:34.665Z,101092.19
2023-01-31T02:52:17.207Z,101089.44
2023-01-31T02:55:11.076Z,101093.75
2023-01-31T02:57:39.595Z,101102.41
2023-01-31T03:00:09.642Z,101104.94
2023-01-31T03:02:37.456Z,101106.59
2023-01-31T03:05:06.809Z,101109.16
2023-01-31T03:07:38.206Z,101109.13
2023-01-31T03:10:28.528Z,101107.31
2023-01-31T03:13:10.340Z,101104.63
2023-01-31T03:16:05.248Z,101112.56
2023-01-31T03:18:41.889Z,101128.28
2023-01-31T03:21:15.220Z,101111.63
2023-01-31T03:23:46.369Z,101123.94
2023-01-31T03:26:13.978Z,101132.69
2023-01-31T03:28:43.973Z,101120.50
2023-01-31T03:31:19.974Z,101130.97
2023-01-31T03:33:52.068Z,101121.31
2023-01-31T03:36:29.145Z,101129.16
2023-01-31T03:39:16.375Z,101123.94
2023-01-31T03:41:57.688Z,101131.78
2023-01-31T03:44:36.262Z,101137.97
2023-01-31T03:47:09.472Z,101127.50
2023-01-31T03:49:41.844Z,101137.16
2023-01-31T03:52:14.996Z,101140.78
2023-01-31T03:54:46.634Z,101133.84
2023-01-31T03:57:18.868Z,101131.22
2023-01-31T03:59:53.901Z,101149.56
2023-01-31T04:02:24.119Z,101143.47
2023-01-31T04:04:56.882Z,101153.06
2023-01-31T04:07:26.252Z,101153.06
2023-01-31T04:09:53.832Z,101151.31
2023-01-31T04:12:21.831Z,101149.56
2023-01-31T04:14:49.358Z,101149.56
2023-01-31T04:17:16.883Z,101152.13
2023-01-31T04:19:45.112Z,101152.13
2023-01-31T04:22:12.831Z,101146.81
2023-01-31T04:24:41.690Z,101157.28
2023-01-31T04:27:09.173Z,101154.75
2023-01-31T04:29:36.703Z,101158.19
2023-01-31T04:32:04.580Z,101155.56
2023-01-31T04:34:32.173Z,101161.69
2023-01-31T04:36:59.693Z,101164.38
2023-01-31T04:39:27.199Z,101155.75
2023-01-31T04:41:56.029Z,101155.81
2023-01-31T04:44:23.549Z,101164.63
2023-01-31T04:46:51.070Z,101154.19
2023-01-31T04:49:18.685Z,101149.97
2023-01-31T04:51:46.210Z,101149.13
2023-01-31T04:54:13.922Z,101155.34
2023-01-31T04:56:41.495Z,101152.78
2023-01-31T04:59:10.523Z,101151.03
2023-01-31T05:01:38.271Z,101154.53
2023-01-31T05:04:05.929Z,101162.41
2023-01-31T05:06:33.444Z,101146.75
2023-01-31T05:09:01.626Z,101150.25
2023-01-31T05:11:29.227Z,101151.97
2023-01-31T05:13:56.774Z,101160.72
2023-01-31T05:16:25.640Z,101157.22
2023-01-31T05:18:53.224Z,101159.91
2023-01-31T05:21:20.737Z,101159.91
2023-01-31T05:23:48.651Z,101158.22
2023-01-31T05:26:16.286Z,101157.34
2023-01-31T05:28:43.807Z,101167.84
2023-01-31T05:31:13.494Z,101168.78
2023-01-31T05:33:43.027Z,101165.22
2023-01-31T05:36:10.599Z,101170.53
2023-01-31T05:38:38.145Z,101164.41
2023-01-31T05:41:05.893Z,101155.66
2023-01-31T05:43:35.523Z,101160.91
2023-01-31T05:46:04.025Z,101154.66
2023-01-31T05:48:31.609Z,101150.25
2023-01-31T05:51:00.840Z,101145.84
2023-01-31T05:53:28.391Z,101151.09
2023-01-31T05:55:55.888Z,101141.44
2023-01-31T05:58:23.521Z,101148.41
2023-01-31T06:00:50.995Z,101145.78
2023-01-31T06:03:18.553Z,101150.16
2023-01-31T06:05:46.060Z,101151.84
2023-01-31T06:08:14.883Z,101156.16
2023-01-31T06:10:42.702Z,101153.53
2023-01-31T06:13:10.210Z,101157.03
2023-01-31T06:15:38.603Z,101174.50
2023-01-31T06:18:06.184Z,101166.56
2023-01-31T06:20:33.656Z,101170.88
2023-01-31T06:23:02.017Z,101170.94
2023-01-31T06:25:31.089Z,101191.91
2023-01-31T06:27:59.319Z,101188.41
2023-01-31T06:30:27.051Z,101192.84
2023-01-31T06:32:54.600Z,101198.97
2023-01-31T06:35:23.197Z,101192.91
2023-01-31T06:37:50.814Z,101191.25
2023-01-31T06:40:18.859Z,101192.13
2023-01-31T06:42:47.877Z,101202.66
2023-01-31T06:45:15.417Z,101193.97
2023-01-31T06:47:43.037Z,101194.09
2023-01-31T06:50:12.069Z,101198.50
2023-01-31T06:52:40.301Z,101190.63
2023-01-31T06:55:08.399Z,101195.06
2023-01-31T06:57:36.218Z,101179.31
2023-01-31T07:00:05.986Z,101177.59
2023-01-31T07:02:33.502Z,101172.34
2023-01-31T07:05:01.102Z,101174.91
2023-01-31T07:07:28.841Z,101167.09
2023-01-31T07:09:56.761Z,101174.16
2023-01-31T07:12:24.299Z,101176.72
2023-01-31T07:14:52.061Z,101172.34
2023-01-31T07:17:21.086Z,101163.59
2023-01-31T07:19:48.668Z,101161.84
2023-01-31T07:22:16.191Z,101157.47
2023-01-31T07:24:43.689Z,101158.28
2023-01-31T07:27:13.946Z,101174.91
2023-01-31T07:29:41.669Z,101163.66
2023-01-31T07:32:09.206Z,101156.69
2023-01-31T07:34:38.026Z,101162.03
2023-01-31T07:37:05.643Z,101155.06
2023-01-31T07:39:33.417Z,101156.88
2023-01-31T07:42:00.955Z,101150.75
2023-01-31T07:44:28.457Z,101152.50
2023-01-31T07:46:56.492Z,101151.69
2023-01-31T07:49:24.026Z,101142.06
2023-01-31T07:51:52.868Z,101138.63
2023-01-31T07:54:20.366Z,101132.59
2023-01-31T07:56:47.866Z,101137.91
2023-01-31T07:59:17.146Z,101128.28
2023-01-31T08:02:02.425Z,101125.72
2023-01-31T08:04:29.986Z,101117.94
2023-01-31T08:06:59.699Z,101117.16
2023-01-31T08:09:27.244Z,101117.22
2023-01-31T08:11:54.746Z,101111.19
2023-01-31T08:14:25.325Z,101112.97
2023-01-31T08:16:52.880Z,101101.63
2023-01-31T08:19:20.422Z,101113.06
2023-01-31T08:21:48.044Z,101095.69
2023-01-31T08:24:16.901Z,101093.13
2023-01-31T08:26:44.833Z,101092.31
2023-01-31T08:29:12.412Z,101086.31
2023-01-31T08:31:41.558Z,101089.00
2023-01-31T08:34:09.500Z,101078.53
2023-01-31T08:36:37.263Z,101081.31
2023-01-31T08:39:05.654Z,101084.94
2023-01-31T08:41:36.814Z,101082.41
2023-01-31T08:44:04.977Z,101073.81
2023-01-31T08:46:34.676Z,101075.72
2023-01-31T08:49:03.121Z,101078.44
2023-01-31T08:51:31.417Z,101069.84
2023-01-31T08:53:59.366Z,101069.09
2023-01-31T08:56:27.867Z,101058.63
2023-01-31T08:58:58.834Z,101056.22
2023-01-31T09:01:26.429Z,101044.97
2023-01-31T09:03:56.914Z,101053.97
2023-01-31T09:06:27.153Z,101050.66
2023-01-31T09:08:56.506Z,101047.38
2023-01-31T09:11:24.233Z,101044.06
2023-01-31T09:13:51.865Z,101042.53
2023-01-31T09:16:21.215Z,101033.94
2023-01-31T09:18:49.066Z,101031.50
2023-01-31T09:21:19.593Z,101029.97
2023-01-31T09:23:48.773Z,101017.88
2023-01-31T09:26:17.542Z,101015.38
2023-01-31T09:28:45.563Z,101007.63
2023-01-31T09:31:15.364Z,101016.53
2023-01-31T09:33:44.684Z,101010.53
2023-01-31T09:36:14.790Z,101009.78
2023-01-31T09:38:42.394Z,101007.25
2023-01-31T09:41:20.319Z,100995.06
2023-01-31T09:43:59.871Z,100985.53
2023-01-31T09:46:32.369Z,100981.25
2023-01-31T09:49:06.103Z,100970.00
2023-01-31T09:51:34.847Z,100973.69
2023-01-31T09:54:04.799Z,100978.22
2023-01-31T09:56:39.684Z,100971.34
2023-01-31T09:59:18.949Z,100970.63
2023-01-31T10:01:56.647Z,100963.69
2023-01-31T10:04:45.810Z,100951.50
2023-01-31T10:07:20.393Z,100937.63
2023-01-31T10:09:53.378Z,100918.38
2023-01-31T10:12:25.751Z,100921.09
2023-01-31T10:14:56.970Z,100926.41
2023-01-31T10:17:29.186Z,100933.53
2023-01-31T10:20:02.216Z,100930.97
2023-01-31T10:22:37.267Z,100930.19
2023-01-31T10:25:17.383Z,100939.16
2023-01-31T10:27:49.602Z,100930.53
2023-01-31T10:30:20.912Z,100921.06
2023-01-31T10:32:52.371Z,100921.97
2023-01-31T10:35:25.850Z,100901.84
2023-01-31T10:37:57.601Z,100892.19
2023-01-31T10:40:33.635Z,100889.59
2023-01-31T10:43:06.109Z,100886.09
2023-01-31T10:45:34.154Z,100892.22
2023-01-31T10:48:14.843Z,100870.34
2023-01-31T10:50:55.085Z,100878.31
2023-01-31T10:53:36.589Z,100871.34
2023-01-31T10:56:08.059Z,100869.69
2023-01-31T10:58:37.662Z,100867.13
2023-01-31T11:01:08.381Z,100864.53
2023-01-31T11:03:36.529Z,100862.00
2023-01-31T11:06:06.474Z,100868.97
2023-01-31T11:08:41.702Z,100860.19
2023-01-31T11:11:11.400Z,100853.22
2023-01-31T11:13:39.256Z,100843.53
2023-01-31T11:16:10.805Z,100851.41
2023-01-31T11:18:45.878Z,100837.38
2023-01-31T11:21:21.330Z,100847.09
2023-01-31T11:23:49.946Z,100838.34
2023-01-31T11:26:28.104Z,100827.84
2023-01-31T11:28:56.653Z,100819.06
2023-01-31T11:31:31.555Z,100814.63
2023-01-31T11:34:01.705Z,100822.47
2023-01-31T11:36:41.653Z,100804.88
2023-01-31T11:39:26.155Z,100807.47
2023-01-31T11:41:53.888Z,100783.75
2023-01-31T11:44:23.258Z,100782.78
2023-01-31T11:46:53.954Z,100775.63
2023-01-31T11:49:30.713Z,100764.94
2023-01-31T11:52:02.937Z,100777.13
2023-01-31T11:54:34.940Z,100742.81
2023-01-31T11:57:03.174Z,100748.91
2023-01-31T11:59:32.118Z,100743.56
2023-01-31T12:02:01.949Z,100733.91
2023-01-31T12:04:35.797Z,100734.69
2023-01-31T12:07:06.994Z,100730.25
2023-01-31T12:09:45.564Z,100714.44
2023-01-31T12:12:29.891Z,100712.69
2023-01-31T12:15:01.319Z,100710.06
2023-01-31T12:17:31.847Z,100695.13
2023-01-31T12:20:28.486Z,100696.03
2023-01-31T12:23:08.197Z,100693.41
2023-01-31T12:25:52.890Z,100686.38
2023-01-31T12:28:33.960Z,100683.78
2023-01-31T12:31:24.393Z,100684.66
2023-01-31T12:34:25.904Z,100683.81
2023-01-31T12:37:16.654Z,100679.44
2023-01-31T12:40:04.827Z,100669.78
2023-01-31T12:42:51.333Z,100666.25
2023-01-31T12:45:33.671Z,100652.22
2023-01-31T12:48:20.316Z,100660.06
2023-01-31T12:50:53.393Z,100650.38
2023-01-31T12:53:40.416Z,100654.75
2023-01-31T12:56:23.305Z,100650.38
2023-01-31T12:59:14.742Z,100651.25
2023-01-31T13:01:49.910Z,100650.38
2023-01-31T13:04:31.974Z,100633.78
2023-01-31T13:07:02.233Z,100647.03
2023-01-31T13:09:33.225Z,100648.84
2023-01-31T13:12:07.968Z,100634.84
2023-01-31T13:14:41.576Z,100637.53
2023-01-31T13:17:13.400Z,100633.16
2023-01-31T13:19:48.925Z,100632.28
2023-01-31T13:22:21.491Z,100641.97
2023-01-31T13:24:57.039Z,100616.56
2023-01-31T13:27:32.141Z,100622.75
2023-01-31T13:30:03.344Z,100628.97
2023-01-31T13:32:38.983Z,100631.66
2023-01-31T13:35:17.759Z,100624.63
2023-01-31T13:37:49.518Z,100623.72
2023-01-31T13:40:21.181Z,100634.25
2023-01-31T13:42:51.174Z,100637.75
2023-01-31T13:45:24.961Z,100632.50
2023-01-31T13:47:59.283Z,100631.63
2023-01-31T13:50:36.450Z,100629.81
2023-01-31T13:53:08.269Z,100633.34
2023-01-31T13:55:39.780Z,100640.28
2023-01-31T13:58:16.658Z,100642.84
2023-01-31T14:00:46.245Z,100631.41
2023-01-31T14:03:16.509Z,100640.19
2023-01-31T14:05:59.347Z,100632.28
2023-01-31T14:08:36.744Z,100623.41
2023-01-31T14:11:28.339Z,100624.22
2023-01-31T14:14:29.291Z,100619.81
2023-01-31T14:16:57.362Z,100627.66
2023-01-31T14:19:55.017Z,100630.38
2023-01-31T14:22:23.850Z,100618.03
2023-01-31T14:24:57.524Z,100618.03
2023-01-31T14:27:28.272Z,100618.88
2023-01-31T14:30:01.945Z,100625.91
2023-01-31T14:32:32.988Z,100617.09
2023-01-31T14:35:08.536Z,100619.72
2023-01-31T14:37:43.566Z,100616.16
2023-01-31T14:40:23.252Z,100604.78
2023-01-31T14:43:18.429Z,100586.34
2023-01-31T14:46:08.770Z,100592.44
2023-01-31T14:49:05.761Z,100581.94
2023-01-31T14:51:46.233Z,100596.81
2023-01-31T14:54:31.527Z,100586.25
2023-01-31T14:57:14.444Z,100598.59
2023-01-31T14:59:52.399Z,100602.94
2023-01-31T15:02:42.451Z,100597.69
2023-01-31T15:05:14.203Z,100600.28
2023-01-31T15:08:06.241Z,100607.28
2023-01-31T15:11:02.072Z,100603.78
2023-01-31T15:13:39.901Z,100606.38
2023-01-31T15:16:11.404Z,100616.06
2023-01-31T15:18:40.741Z,100604.66
2023-01-31T15:21:10.316Z,100615.19
2023-01-31T15:23:41.903Z,100623.06
2023-01-31T15:26:11.084Z,100604.66
2023-01-31T15:28:42.817Z,100596.78
2023-01-31T15:31:18.887Z,100606.41
2023-01-31T15:33:52.360Z,100596.81
2023-01-31T15:36:27.492Z,100593.38
2023-01-31T15:38:57.751Z,100575.88
2023-01-31T15:41:27.287Z,100574.06
2023-01-31T15:43:57.062Z,100578.47
2023-01-31T15:46:29.031Z,100568.91
2023-01-31T15:48:58.560Z,100576.81
2023-01-31T15:51:27.078Z,100575.94
2023-01-31T15:54:06.110Z,100587.38
2023-01-31T15:56:36.397Z,100582.09
2023-01-31T15:59:11.204Z,100590.91
2023-01-31T16:01:38.994Z,100583.06
2023-01-31T16:04:08.083Z,100576.94
2023-01-31T16:06:38.702Z,100575.28
2023-01-31T16:09:10.665Z,100580.59
2023-01-31T16:11:38.602Z,100585.91
2023-01-31T16:14:07.636Z,100587.63
2023-01-31T16:16:36.594Z,100590.34
2023-01-31T16:19:05.359Z,100596.44
2023-01-31T16:21:39.135Z,100579.75
2023-01-31T16:24:15.800Z,100584.22
2023-01-31T16:26:54.452Z,100564.03
2023-01-31T16:29:25.834Z,100558.84
2023-01-31T16:31:55.362Z,100556.28
2023-01-31T16:34:27.311Z,100546.56
2023-01-31T16:37:04.536Z,100572.88
2023-01-31T16:39:38.965Z,100573.75
2023-01-31T16:42:09.837Z,100594.00
2023-01-31T16:44:42.844Z,100590.53
2023-01-31T16:47:32.806Z,100592.34
2023-01-31T16:50:41.935Z,100575.66
2023-01-31T16:53:26.163Z,100585.44
2023-01-31T16:56:18.719Z,100593.34
2023-01-31T16:58:50.139Z,100581.06
2023-01-31T17:01:21.060Z,100575.06
2023-01-31T17:04:04.925Z,100597.88
2023-01-31T17:06:33.546Z,100568.94
2023-01-31T17:09:05.423Z,100573.41
2023-01-31T17:11:42.525Z,100566.34
2023-01-31T17:14:10.929Z,100570.72
2023-01-31T17:16:38.616Z,100574.25
2023-01-31T17:19:06.556Z,100567.22
2023-01-31T17:21:40.106Z,100568.03
2023-01-31T17:24:14.168Z,100575.94
2023-01-31T17:26:41.959Z,100575.97
2023-01-31T17:29:09.624Z,100581.25
2023-01-31T17:31:37.476Z,100575.06
2023-01-31T17:34:06.638Z,100572.41
2023-01-31T17:36:34.238Z,100568.84
2023-01-31T17:39:01.847Z,100579.34
2023-01-31T17:41:30.792Z,100582.84
2023-01-31T17:43:58.418Z,100588.13
2023-01-31T17:46:25.995Z,100572.34
2023-01-31T17:48:53.612Z,100590.75
2023-01-31T17:51:21.234Z,100583.69
2023-01-31T17:53:50.383Z,100583.66
2023-01-31T17:56:18.940Z,100573.09
2023-01-31T17:58:49.300Z,100549.34
2023-01-31T18:01:17.048Z,100536.19
2023-01-31T18:03:45.865Z,100537.00
2023-01-31T18:06:13.485Z,100548.34
2023-01-31T18:08:41.109Z,100544.75
2023-01-31T18:11:10.372Z,100538.53
2023-01-31T18:13:39.188Z,100542.88
2023-01-31T18:16:11.122Z,100551.53
2023-01-31T18:18:40.769Z,100565.50
2023-01-31T18:21:10.606Z,100561.91
2023-01-31T18:23:38.230Z,100569.69
2023-01-31T18:26:06.264Z,100557.34
2023-01-31T18:28:34.016Z,100546.78
2023-01-31T18:31:03.619Z,100556.38
2023-01-31T18:33:33.253Z,100556.38
2023-01-31T18:36:01.876Z,100563.41
2023-01-31T18:38:31.168Z,100573.03
2023-01-31T18:41:00.131Z,100575.66
2023-01-31T18:43:31.020Z,100573.91
2023-01-31T18:45:58.670Z,100565.09
2023-01-31T18:48:26.257Z,100578.22
2023-01-31T18:50:55.292Z,100573.78
2023-01-31T18:53:22.903Z,100584.28
2023-01-31T18:55:50.469Z,100599.19
2023-01-31T18:58:18.099Z,100583.44
2023-01-31T19:00:45.816Z,100594.88
2023-01-31T19:03:13.471Z,100584.38
2023-01-31T19:05:41.045Z,100596.78
2023-01-31T19:08:10.043Z,100601.13
2023-01-31T19:10:37.648Z,100587.97
2023-01-31T19:13:05.429Z,100588.84
2023-01-31T19:15:33.380Z,100586.22
2023-01-31T19:18:00.981Z,100578.25
2023-01-31T19:20:28.570Z,100596.63
2023-01-31T19:22:59.201Z,100593.16
2023-01-31T19:25:28.135Z,100583.50
2023-01-31T19:27:55.868Z,100576.53
2023-01-31T19:30:23.455Z,100600.25
2023-01-31T19:32:51.074Z,100588.88
2023-01-31T19:35:18.795Z,100595.09
2023-01-31T19:37:46.433Z,100595.13
2023-01-31T19:40:14.532Z,100589.00
2023-01-31T19:42:45.582Z,100591.69
2023-01-31T19:45:21.843Z,100591.72
2023-01-31T19:47:50.280Z,100586.56
2023-01-31T19:50:19.211Z,100593.59
2023-01-31T19:52:46.987Z,100597.09
2023-01-31T19:55:14.674Z,100580.47
2023-01-31T19:57:43.607Z,100588.44
2023-01-31T20:00:13.186Z,100591.09
2023-01-31T20:02:43.111Z,100596.38
2023-01-31T20:05:13.036Z,100609.50
2023-01-31T20:07:42.470Z,100597.22
2023-01-31T20:10:11.836Z,100599.84
2023-01-31T20:12:39.769Z,100599.81
2023-01-31T20:15:09.954Z,100598.03
2023-01-31T20:17:37.548Z,100608.53
2023-01-31T20:20:06.192Z,100602.41
2023-01-31T20:22:33.849Z,100608.53
2023-01-31T20:25:01.441Z,100617.28
2023-01-31T20:27:33.582Z,100605.00
2023-01-31T20:30:01.169Z,100628.69
2023-01-31T20:32:30.142Z,100617.22
2023-01-31T20:34:58.035Z,100625.06
2023-01-31T20:37:25.766Z,100634.72
2023-01-31T20:39:53.352Z,100627.69
2023-01-31T20:42:20.935Z,100638.19
2023-01-31T20:44:48.623Z,100626.75
2023-01-31T20:47:16.226Z,100634.59
2023-01-31T20:49:45.170Z,100627.59
2023-01-31T20:52:12.889Z,100645.97
2023-01-31T20:54:40.491Z,100650.41
2023-01-31T20:57:08.169Z,100656.50
2023-01-31T20:59:35.789Z,100651.16
2023-01-31T21:02:03.468Z,100666.00
2023-01-31T21:04:31.143Z,100653.69
2023-01-31T21:07:00.146Z,100659.84
2023-01-31T21:09:27.806Z,100665.03
2023-01-31T21:11:55.919Z,100664.94
2023-01-31T21:14:23.695Z,100660.63
2023-01-31T21:16:51.449Z,100664.03
2023-01-31T21:19:19.351Z,100662.19
2023-01-31T21:21:46.975Z,100655.97
2023-01-31T21:24:16.070Z,100660.38
2023-01-31T21:26:43.847Z,100641.84
2023-01-31T21:29:11.677Z,100649.69
2023-01-31T21:31:39.514Z,100646.09
2023-01-31T21:34:07.352Z,100648.59
2023-01-31T21:36:36.217Z,100639.78
2023-01-31T21:39:04.282Z,100645.81
2023-01-31T21:41:51.034Z,100665.03
2023-01-31T21:44:18.864Z,100661.47
2023-01-31T21:46:47.228Z,100660.59
2023-01-31T21:49:14.938Z,100652.66
2023-01-31T21:51:42.588Z,100648.31
2023-01-31T21:54:10.446Z,100648.28
2023-01-31T21:56:39.474Z,100656.22
2023-01-31T21:59:07.145Z,100661.38
2023-01-31T22:01:36.623Z,100657.00
2023-01-31T22:04:04.921Z,100659.69
2023-01-31T22:06:37.502Z,100667.56
2023-01-31T22:09:06.506Z,100663.25
2023-01-31T22:11:35.410Z,100658.88
2023-01-31T22:14:06.217Z,100662.47
2023-01-31T22:16:34.037Z,100677.34
2023-01-31T22:19:02.792Z,100652.97
2023-01-31T22:21:32.177Z,100653.81
2023-01-31T22:24:02.095Z,100652.91
2023-01-31T22:26:31.585Z,100662.50
2023-01-31T22:29:01.971Z,100667.75
2023-01-31T22:31:31.574Z,100644.09
2023-01-31T22:34:00.308Z,100655.53
2023-01-31T22:36:28.433Z,100658.97
2023-01-31T22:38:56.397Z,100651.00
2023-01-31T22:41:24.141Z,100671.16
2023-01-31T22:43:53.446Z,100648.38
2023-01-31T22:46:23.334Z,100646.69
2023-01-31T22:48:52.756Z,100661.50
2023-01-31T22:51:22.144Z,100634.22
2023-01-31T22:53:50.413Z,100668.38
2023-01-31T22:56:20.015Z,100660.47
2023-01-31T22:58:48.360Z,100648.97
2023-01-31T23:01:17.590Z,100656.81
2023-01-31T23:03:46.101Z,100647.97
2023-01-31T23:06:16.008Z,100647.06
2023-01-31T23:08:44.509Z,100653.13
2023-01-31T23:11:13.871Z,100646.09
2023-01-31T23:13:42.418Z,100655.69
2023-01-31T23:16:11.926Z,100652.94
2023-01-31T23:18:39.742Z,100653.72
2023-01-31T23:21:08.893Z,100639.69
2023-01-31T23:23:38.045Z,100652.81
2023-01-31T23:26:06.488Z,100641.34
2023-01-31T23:28:34.285Z,100650.94
2023-01-31T23:31:02.384Z,100633.34
2023-01-31T23:33:30.109Z,100664.84
2023-01-31T23:35:57.735Z,100645.59
2023-01-31T23:38:25.363Z,100644.69
2023-01-31T23:40:55.341Z,100650.84
2023-01-31T23:43:24.069Z,100650.84
2023-01-31T23:45:51.913Z,100644.81
2023-01-31T23:48:20.237Z,100651.72
2023-01-31T23:50:47.883Z,100645.59
2023-01-31T23:53:15.564Z,100646.44
2023-01-31T23:55:43.149Z,100633.22
2023-01-31T23:58:12.521Z,100635.94
